Loose Creek, Missouri
Current Conditions -  °F | °C
As of 11:53 AM on Thursday 29 Jan 2015 (Local Time) from KJEF Reporting Station
Overcast Overcast  
Wind Chill: 32°   Ceiling: 3100
Heat Index: 41°   Visibility: 10mi
Dew Point: 27°   Wind: 17mph
Humidity: 57%   Direction: 320°NW
Pressure: 30.25"   Gusts: 28mph
Location:  38.51°N, 91.96°W
Report Text: KJEF 291753Z 32015G24KT 10SM OVC031 05/M03 A3025 RMK AO2 PK WND 31026/1656 SLP234 T00501028 10061 20044 51031
Loading
Personal Weather Stations






























Interactive Weather Map New forecast layout! Learn more

10-Day Weather Forecast

Advertisements
Track Severe Weather on mobile